createdAt,value
2023-07-18T00:01:10.335Z,2.80
2023-07-18T00:03:41.780Z,2.92
2023-07-18T00:06:13.572Z,2.83
2023-07-18T00:08:49.258Z,2.80
2023-07-18T00:11:24.138Z,2.90
2023-07-18T00:14:02.178Z,2.83
2023-07-18T00:16:33.278Z,3.08
2023-07-18T00:19:08.785Z,3.00
2023-07-18T00:21:41.726Z,3.00
2023-07-18T00:24:13.899Z,2.85
2023-07-18T00:26:49.377Z,3.15
2023-07-18T00:29:22.392Z,2.75
2023-07-18T00:31:56.358Z,3.02
2023-07-18T00:34:31.391Z,2.83
2023-07-18T00:37:06.362Z,3.17
2023-07-18T00:39:40.287Z,2.87
2023-07-18T00:42:12.644Z,3.02
2023-07-18T00:44:43.687Z,3.00
2023-07-18T00:47:15.303Z,3.27
2023-07-18T00:49:47.503Z,3.17
2023-07-18T00:52:24.628Z,2.95
2023-07-18T00:55:00.176Z,3.40
2023-07-18T00:57:35.578Z,3.62
2023-07-18T01:00:08.501Z,2.90
2023-07-18T01:02:47.173Z,3.17
2023-07-18T01:05:20.584Z,3.67
2023-07-18T01:07:54.373Z,3.25
2023-07-18T01:10:29.774Z,3.20
2023-07-18T01:13:02.538Z,3.40
2023-07-18T01:15:35.340Z,3.42
2023-07-18T01:18:07.787Z,2.92
2023-07-18T01:20:41.701Z,3.50
2023-07-18T01:23:15.370Z,3.40
2023-07-18T01:25:46.246Z,3.42
2023-07-18T01:28:19.251Z,3.62
2023-07-18T01:30:52.103Z,3.60
2023-07-18T01:33:25.010Z,3.70
2023-07-18T01:35:55.811Z,3.67
2023-07-18T01:38:30.317Z,3.40
2023-07-18T01:41:01.614Z,3.62
2023-07-18T01:43:32.325Z,3.40
2023-07-18T01:46:04.628Z,3.75
2023-07-18T01:48:35.797Z,3.60
2023-07-18T01:51:06.978Z,3.80
2023-07-18T01:53:37.736Z,3.80
2023-07-18T01:56:09.227Z,3.85
2023-07-18T01:58:41.459Z,3.65
2023-07-18T02:01:12.393Z,3.80
2023-07-18T02:03:43.236Z,3.75
2023-07-18T02:06:13.945Z,3.75
2023-07-18T02:08:45.405Z,3.85
2023-07-18T02:11:16.506Z,3.70
2023-07-18T02:13:48.334Z,3.62
2023-07-18T02:16:20.871Z,4.60
2023-07-18T02:18:52.299Z,4.03
2023-07-18T02:21:23.484Z,3.62
2023-07-18T02:23:57.542Z,4.10
2023-07-18T02:26:28.143Z,3.75
2023-07-18T02:29:04.554Z,3.80
2023-07-18T02:31:35.828Z,3.90
2023-07-18T02:34:06.537Z,4.08
2023-07-18T02:36:37.324Z,3.70
2023-07-18T02:39:09.756Z,4.05
2023-07-18T02:41:42.130Z,3.33
2023-07-18T02:44:14.809Z,3.70
2023-07-18T02:46:48.387Z,3.80
2023-07-18T02:49:20.829Z,3.52
2023-07-18T02:51:51.717Z,3.45
2023-07-18T02:54:24.097Z,3.70
2023-07-18T02:56:54.920Z,3.62
2023-07-18T02:59:29.986Z,3.45
2023-07-18T03:02:04.732Z,3.98
2023-07-18T03:04:37.218Z,4.00
2023-07-18T03:07:09.563Z,3.67
2023-07-18T03:09:42.487Z,4.30
2023-07-18T03:12:13.380Z,3.85
2023-07-18T03:14:44.904Z,4.28
2023-07-18T03:17:17.119Z,4.10
2023-07-18T03:19:48.293Z,4.37
2023-07-18T03:22:19.038Z,4.22
2023-07-18T03:24:49.933Z,4.30
2023-07-18T03:27:20.905Z,4.03
2023-07-18T03:29:52.709Z,4.70
2023-07-18T03:32:23.776Z,4.50
2023-07-18T03:34:57.646Z,3.70
2023-07-18T03:37:30.335Z,4.47
2023-07-18T03:40:01.363Z,4.57
2023-07-18T03:42:32.914Z,4.55
2023-07-18T03:45:04.141Z,4.47
2023-07-18T03:47:35.165Z,4.47
2023-07-18T03:50:07.380Z,4.70
2023-07-18T03:52:38.044Z,4.70
2023-07-18T03:55:10.262Z,4.40
2023-07-18T03:57:42.825Z,4.67
2023-07-18T04:00:19.886Z,4.60
2023-07-18T04:02:51.599Z,4.60
2023-07-18T04:05:22.186Z,4.20
2023-07-18T04:07:55.539Z,4.30
2023-07-18T04:10:26.283Z,4.50
2023-07-18T04:12:58.894Z,4.37
2023-07-18T04:15:31.956Z,4.70
2023-07-18T04:18:02.750Z,4.57
2023-07-18T04:20:36.202Z,4.58
2023-07-18T04:23:08.824Z,4.17
2023-07-18T04:25:43.667Z,4.20
2023-07-18T04:28:14.531Z,4.30
2023-07-18T04:30:46.661Z,4.50
2023-07-18T04:33:17.351Z,4.62
2023-07-18T04:35:47.931Z,4.78
2023-07-18T04:38:20.386Z,4.12
2023-07-18T04:40:54.301Z,4.53
2023-07-18T04:43:25.252Z,4.35
2023-07-18T04:45:56.910Z,4.25
2023-07-18T04:48:28.611Z,4.30
2023-07-18T04:51:02.900Z,4.85
2023-07-18T04:53:34.651Z,4.45
2023-07-18T04:56:07.140Z,4.40
2023-07-18T04:58:37.657Z,4.50
2023-07-18T05:01:10.637Z,4.25
2023-07-18T05:03:57.342Z,4.08
2023-07-18T05:06:18.784Z,3.83
2023-07-18T05:08:50.640Z,3.60
2023-07-18T05:11:23.095Z,3.12
2023-07-18T05:13:54.729Z,3.40
2023-07-18T05:16:26.157Z,3.30
2023-07-18T05:18:57.175Z,3.08
2023-07-18T05:21:28.089Z,2.77
2023-07-18T05:24:00.241Z,3.00
2023-07-18T05:26:32.323Z,3.10
2023-07-18T05:29:10.176Z,3.50
2023-07-18T05:31:41.368Z,2.98
2023-07-18T05:34:14.239Z,3.47
2023-07-18T05:36:46.464Z,3.70
2023-07-18T05:39:17.777Z,3.30
2023-07-18T05:41:49.253Z,3.55
2023-07-18T05:44:21.904Z,3.30
2023-07-18T05:46:52.695Z,2.98
2023-07-18T05:49:24.516Z,3.22
2023-07-18T05:51:55.568Z,3.08
2023-07-18T05:54:29.554Z,3.35
2023-07-18T05:57:02.994Z,3.35
2023-07-18T05:59:34.441Z,3.20
2023-07-18T06:02:05.862Z,3.20
2023-07-18T06:04:41.909Z,2.98
2023-07-18T06:07:14.224Z,3.20
2023-07-18T06:09:45.060Z,3.22
2023-07-18T06:12:20.229Z,3.27
2023-07-18T06:14:52.832Z,3.15
2023-07-18T06:17:29.556Z,3.52
2023-07-18T06:20:03.467Z,3.58
2023-07-18T06:22:34.149Z,3.62
2023-07-18T06:25:05.621Z,3.75
2023-07-18T06:27:36.539Z,3.47
2023-07-18T06:30:09.772Z,3.10
2023-07-18T06:32:41.252Z,3.10
2023-07-18T06:37:47.144Z,3.15
2023-07-18T06:40:19.518Z,3.27
2023-07-18T06:42:54.078Z,3.37
2023-07-18T06:45:32.823Z,2.92
2023-07-18T06:48:04.595Z,3.40
2023-07-18T06:50:36.787Z,3.15
2023-07-18T06:53:07.363Z,3.02
2023-07-18T06:55:38.069Z,3.37
2023-07-18T06:58:11.236Z,2.95
2023-07-18T07:00:43.272Z,3.20
2023-07-18T07:03:15.278Z,3.00
2023-07-18T07:05:47.887Z,3.22
2023-07-18T07:08:21.821Z,3.30
2023-07-18T07:10:56.949Z,3.52
2023-07-18T07:13:28.507Z,3.75
2023-07-18T07:16:01.645Z,3.60
2023-07-18T07:18:33.664Z,3.98
2023-07-18T07:21:06.949Z,4.03
2023-07-18T07:23:38.196Z,4.25
2023-07-18T07:26:11.794Z,4.30
2023-07-18T07:28:43.892Z,4.40
2023-07-18T07:31:16.192Z,4.03
2023-07-18T07:33:47.205Z,4.45
2023-07-18T07:36:18.100Z,3.98
2023-07-18T07:38:49.478Z,4.22
2023-07-18T07:41:29.388Z,3.77
2023-07-18T07:43:59.487Z,3.70
2023-07-18T07:46:31.309Z,4.10
2023-07-18T07:49:05.525Z,4.37
2023-07-18T07:51:37.627Z,4.25
2023-07-18T07:54:09.028Z,3.92
2023-07-18T07:56:39.632Z,3.65
2023-07-18T07:59:12.263Z,3.80
2023-07-18T08:01:46.189Z,3.77
2023-07-18T08:04:19.286Z,3.75
2023-07-18T08:06:50.663Z,3.92
2023-07-18T08:09:21.436Z,3.35
2023-07-18T08:11:53.803Z,4.05
2023-07-18T08:14:24.538Z,4.60
2023-07-18T08:16:56.777Z,3.42
2023-07-18T08:19:29.205Z,3.87
2023-07-18T08:22:01.876Z,3.80
2023-07-18T08:24:33.906Z,3.47
2023-07-18T08:27:07.531Z,4.53
2023-07-18T08:29:38.281Z,3.65
2023-07-18T08:32:10.243Z,3.62
2023-07-18T08:34:45.182Z,3.20
2023-07-18T08:37:15.932Z,3.10
2023-07-18T08:39:46.771Z,3.40
2023-07-18T08:42:19.191Z,3.85
2023-07-18T08:44:51.159Z,3.47
2023-07-18T08:47:24.832Z,3.15
2023-07-18T08:49:55.743Z,2.62
2023-07-18T08:52:27.919Z,3.50
2023-07-18T08:54:58.444Z,3.05
2023-07-18T08:57:30.173Z,3.50
2023-07-18T09:00:12.336Z,3.10
2023-07-18T09:02:39.851Z,2.83
2023-07-18T09:05:17.221Z,3.08
2023-07-18T09:07:49.041Z,2.72
2023-07-18T09:10:22.845Z,2.92
2023-07-18T09:12:53.753Z,3.10
2023-07-18T09:15:24.343Z,3.27
2023-07-18T09:17:59.416Z,2.98
2023-07-18T09:20:32.001Z,3.35
2023-07-18T09:23:07.024Z,3.27
2023-07-18T09:25:42.192Z,2.55
2023-07-18T09:28:14.290Z,2.85
2023-07-18T09:30:46.282Z,3.00
2023-07-18T09:33:19.519Z,2.90
2023-07-18T09:35:50.320Z,4.10
2023-07-18T09:38:21.974Z,2.67
2023-07-18T09:40:53.996Z,2.90
2023-07-18T09:43:25.742Z,3.20
2023-07-18T09:45:58.690Z,2.87
2023-07-18T09:48:44.837Z,2.87
2023-07-18T09:51:09.365Z,2.80
2023-07-18T09:53:43.424Z,2.85
2023-07-18T09:56:16.288Z,3.05
2023-07-18T09:58:50.862Z,2.83
2023-07-18T10:01:24.875Z,2.80
2023-07-18T10:03:58.020Z,2.77
2023-07-18T10:06:30.344Z,2.47
2023-07-18T10:09:05.137Z,2.70
2023-07-18T10:11:56.606Z,2.60
2023-07-18T10:14:37.285Z,2.60
2023-07-18T10:17:11.267Z,2.67
2023-07-18T10:19:51.704Z,2.50
2023-07-18T10:22:33.428Z,2.62
2023-07-18T10:25:08.759Z,2.27
2023-07-18T10:27:46.496Z,2.52
2023-07-18T10:30:19.772Z,2.33
2023-07-18T10:32:58.718Z,2.65
2023-07-18T10:35:29.855Z,2.47
2023-07-18T10:38:06.893Z,2.58
2023-07-18T10:40:44.369Z,2.35
2023-07-18T10:43:21.428Z,2.67
2023-07-18T10:45:55.666Z,2.50
2023-07-18T10:48:28.597Z,2.60
2023-07-18T10:50:59.814Z,2.30
2023-07-18T10:53:32.097Z,2.40
2023-07-18T10:56:03.113Z,2.60
2023-07-18T10:58:38.521Z,2.27
2023-07-18T11:01:12.334Z,2.62
2023-07-18T11:03:52.073Z,2.45
2023-07-18T11:06:24.281Z,2.52
2023-07-18T11:08:55.807Z,2.35
2023-07-18T11:11:28.142Z,2.10
2023-07-18T11:14:00.002Z,2.40
2023-07-18T11:16:30.979Z,2.47
2023-07-18T11:19:10.449Z,2.17
2023-07-18T11:21:41.332Z,2.65
2023-07-18T11:24:12.699Z,2.70
2023-07-18T11:26:46.427Z,2.50
2023-07-18T11:29:18.794Z,2.47
2023-07-18T11:31:51.022Z,2.72
2023-07-18T11:34:25.515Z,2.47
2023-07-18T11:36:58.284Z,2.20
2023-07-18T11:39:34.338Z,2.40
2023-07-18T11:42:09.817Z,2.60
2023-07-18T11:44:46.139Z,2.60
2023-07-18T11:47:21.330Z,2.47
2023-07-18T11:49:54.547Z,2.80
2023-07-18T11:52:31.099Z,2.60
2023-07-18T11:55:06.718Z,2.30
2023-07-18T11:57:43.891Z,2.15
2023-07-18T12:00:16.327Z,2.10
2023-07-18T12:02:50.132Z,1.95
2023-07-18T12:05:24.073Z,2.40
2023-07-18T12:07:56.018Z,2.35
2023-07-18T12:10:29.334Z,2.20
2023-07-18T12:13:01.697Z,2.00
2023-07-18T12:15:37.168Z,2.60
2023-07-18T12:18:08.798Z,2.15
2023-07-18T12:20:39.650Z,2.45
2023-07-18T12:23:13.486Z,2.98
2023-07-18T12:25:44.187Z,2.33
2023-07-18T12:28:15.001Z,2.50
2023-07-18T12:30:47.595Z,2.50
2023-07-18T12:33:18.806Z,2.40
2023-07-18T12:35:50.872Z,2.50
2023-07-18T12:38:23.335Z,2.50
2023-07-18T12:40:54.084Z,2.60
2023-07-18T12:43:24.688Z,2.77
2023-07-18T12:45:55.965Z,2.40
2023-07-18T12:48:27.834Z,2.30
2023-07-18T12:51:02.048Z,2.55
2023-07-18T12:53:34.348Z,2.50
2023-07-18T12:56:05.384Z,2.40
2023-07-18T12:58:41.011Z,2.45
2023-07-18T13:01:15.160Z,2.40
2023-07-18T13:03:45.865Z,2.40
2023-07-18T13:06:18.306Z,2.47
2023-07-18T13:08:49.182Z,2.00
2023-07-18T13:11:20.547Z,2.65
2023-07-18T13:13:51.545Z,2.15
2023-07-18T13:16:24.416Z,2.52
2023-07-18T13:18:55.108Z,2.30
2023-07-18T13:21:26.514Z,2.22
2023-07-18T13:23:58.464Z,2.27
2023-07-18T13:26:29.627Z,2.12
2023-07-18T13:29:02.645Z,2.50
2023-07-18T13:31:37.456Z,2.20
2023-07-18T13:34:11.159Z,2.22
2023-07-18T13:36:43.580Z,2.40
2023-07-18T13:39:14.359Z,2.85
2023-07-18T13:41:48.116Z,3.35
2023-07-18T13:44:22.047Z,3.05
2023-07-18T13:46:52.989Z,2.10
2023-07-18T13:49:24.672Z,3.52
2023-07-18T13:51:55.387Z,2.40
2023-07-18T13:54:27.635Z,3.22
2023-07-18T13:56:58.188Z,2.83
2023-07-18T13:59:30.092Z,3.02
2023-07-18T14:02:01.438Z,4.97
2023-07-18T14:04:32.274Z,3.40
2023-07-18T14:07:03.040Z,3.27
2023-07-18T14:09:36.457Z,2.98
2023-07-18T14:12:07.477Z,2.47
2023-07-18T14:14:39.196Z,2.60
2023-07-18T14:17:10.380Z,2.70
2023-07-18T14:19:41.258Z,2.60
2023-07-18T14:22:13.684Z,2.30
2023-07-18T14:24:48.307Z,2.70
2023-07-18T14:27:22.247Z,2.75
2023-07-18T14:29:56.016Z,2.55
2023-07-18T14:32:28.285Z,2.70
2023-07-18T14:35:00.836Z,3.08
2023-07-18T14:37:33.181Z,2.42
2023-07-18T14:40:05.642Z,2.50
2023-07-18T14:42:39.215Z,2.40
2023-07-18T14:45:10.495Z,2.30
2023-07-18T14:47:41.295Z,2.33
2023-07-18T14:50:14.823Z,2.62
2023-07-18T14:52:45.965Z,2.83
2023-07-18T14:55:21.135Z,2.40
2023-07-18T14:57:53.044Z,2.10
2023-07-18T15:00:24.225Z,2.27
2023-07-18T15:02:55.104Z,2.22
2023-07-18T15:05:26.939Z,2.55
2023-07-18T15:07:59.122Z,2.17
2023-07-18T15:10:30.243Z,2.22
2023-07-18T15:13:03.548Z,2.77
2023-07-18T15:15:36.655Z,2.37
2023-07-18T15:18:11.023Z,3.20
2023-07-18T15:20:48.167Z,2.33
2023-07-18T15:23:19.350Z,2.10
2023-07-18T15:25:52.745Z,2.10
2023-07-18T15:28:24.177Z,2.42
2023-07-18T15:30:58.076Z,2.27
2023-07-18T15:33:31.197Z,2.12
2023-07-18T15:36:02.375Z,2.70
2023-07-18T15:38:33.123Z,2.58
2023-07-18T15:41:04.343Z,2.10
2023-07-18T15:43:36.656Z,2.70
2023-07-18T15:46:07.361Z,2.35
2023-07-18T15:48:40.492Z,2.27
2023-07-18T15:51:13.545Z,2.10
2023-07-18T15:53:46.302Z,2.27
2023-07-18T15:56:17.805Z,2.02
2023-07-18T15:58:54.310Z,2.50
2023-07-18T16:01:25.068Z,2.42
2023-07-18T16:03:57.031Z,1.92
2023-07-18T16:06:31.495Z,2.20
2023-07-18T16:09:06.743Z,2.17
2023-07-18T16:11:37.513Z,2.25
2023-07-18T16:14:11.239Z,2.25
2023-07-18T16:16:43.597Z,2.20
2023-07-18T16:19:14.648Z,2.05
2023-07-18T16:21:45.309Z,2.40
2023-07-18T16:24:15.929Z,2.33
2023-07-18T16:26:47.403Z,3.08
2023-07-18T16:29:19.142Z,2.33
2023-07-18T16:31:49.715Z,2.52
2023-07-18T16:34:20.547Z,2.42
2023-07-18T16:36:54.668Z,2.20
2023-07-18T16:39:29.625Z,2.20
2023-07-18T16:42:09.738Z,2.80
2023-07-18T16:44:33.443Z,2.40
2023-07-18T16:47:06.318Z,2.50
2023-07-18T16:49:37.156Z,3.00
2023-07-18T16:52:10.619Z,2.25
2023-07-18T16:54:43.988Z,2.87
2023-07-18T16:57:15.729Z,2.20
2023-07-18T16:59:47.557Z,2.52
2023-07-18T17:02:18.153Z,2.58
2023-07-18T17:04:49.015Z,2.33
2023-07-18T17:07:19.692Z,2.05
2023-07-18T17:09:50.415Z,2.35
2023-07-18T17:12:21.153Z,2.30
2023-07-18T17:14:52.659Z,1.82
2023-07-18T17:17:23.681Z,2.30
2023-07-18T17:20:06.444Z,2.37
2023-07-18T17:22:26.814Z,2.30
2023-07-18T17:24:57.556Z,2.10
2023-07-18T17:27:29.120Z,2.65
2023-07-18T17:29:59.928Z,2.15
2023-07-18T17:32:30.487Z,2.00
2023-07-18T17:35:01.152Z,1.90
2023-07-18T17:37:32.436Z,2.45
2023-07-18T17:40:04.142Z,2.25
2023-07-18T17:42:37.248Z,2.20
2023-07-18T17:45:14.140Z,2.00
2023-07-18T17:47:44.705Z,1.90
2023-07-18T17:50:16.414Z,2.20
2023-07-18T17:52:49.406Z,2.65
2023-07-18T17:55:21.027Z,2.10
2023-07-18T17:57:53.665Z,2.25
2023-07-18T18:00:24.586Z,2.12
2023-07-18T18:02:56.547Z,2.05
2023-07-18T18:05:40.491Z,2.17
2023-07-18T18:08:13.585Z,2.17
2023-07-18T18:10:49.264Z,2.20
2023-07-18T18:13:21.085Z,2.33
2023-07-18T18:16:06.178Z,2.08
2023-07-18T18:18:28.604Z,2.17
2023-07-18T18:21:01.452Z,2.70
2023-07-18T18:23:39.354Z,2.47
2023-07-18T18:26:07.707Z,3.05
2023-07-18T18:28:38.732Z,2.70
2023-07-18T18:31:10.430Z,2.30
2023-07-18T18:33:41.021Z,2.37
2023-07-18T18:36:11.863Z,2.40
2023-07-18T18:38:42.762Z,3.37
2023-07-18T18:41:13.434Z,2.77
2023-07-18T18:43:50.907Z,2.67
2023-07-18T18:46:22.685Z,2.50
2023-07-18T18:48:54.599Z,2.83
2023-07-18T18:51:28.040Z,2.40
2023-07-18T18:53:59.604Z,2.08
2023-07-18T18:56:35.085Z,2.50
2023-07-18T18:59:10.434Z,2.62
2023-07-18T19:01:51.366Z,2.62
2023-07-18T19:04:23.833Z,3.58
2023-07-18T19:06:56.435Z,2.60
2023-07-18T19:09:30.001Z,2.75
2023-07-18T19:12:02.119Z,2.02
2023-07-18T19:14:33.041Z,3.27
2023-07-18T19:17:03.851Z,4.50
2023-07-18T19:19:46.472Z,4.55
2023-07-18T19:22:18.946Z,5.40
2023-07-18T19:24:51.254Z,4.67
2023-07-18T19:27:26.080Z,3.02
2023-07-18T19:29:57.925Z,4.78
2023-07-18T19:32:32.162Z,3.90
2023-07-18T19:35:04.811Z,4.45
2023-07-18T19:37:36.763Z,4.20
2023-07-18T19:40:08.495Z,3.87
2023-07-18T19:42:42.501Z,4.15
2023-07-18T19:45:14.277Z,3.55
2023-07-18T19:47:45.479Z,4.22
2023-07-18T19:50:15.980Z,4.42
2023-07-18T19:52:50.167Z,6.67
2023-07-18T19:55:23.413Z,4.40
2023-07-18T19:57:57.713Z,5.00
2023-07-18T20:00:30.196Z,7.90
2023-07-18T20:03:02.172Z,10.15
2023-07-18T20:05:33.872Z,6.80
2023-07-18T20:08:04.598Z,7.37
2023-07-18T20:10:37.932Z,6.62
2023-07-18T20:13:11.142Z,4.58
2023-07-18T20:15:42.313Z,4.72
2023-07-18T20:18:14.319Z,6.75
2023-07-18T20:20:48.541Z,6.05
2023-07-18T20:23:21.906Z,6.47
2023-07-18T20:25:55.029Z,6.47
2023-07-18T20:28:36.548Z,8.05
2023-07-18T20:31:07.540Z,6.78
2023-07-18T20:33:43.121Z,5.55
2023-07-18T20:36:12.957Z,6.65
2023-07-18T20:38:45.219Z,7.78
2023-07-18T20:41:17.730Z,4.20
2023-07-18T20:43:48.560Z,3.62
2023-07-18T20:46:20.569Z,3.90
2023-07-18T20:48:53.219Z,3.87
2023-07-18T20:51:24.646Z,4.47
2023-07-18T20:53:55.759Z,5.00
2023-07-18T20:56:26.348Z,5.67
2023-07-18T20:58:56.918Z,4.80
2023-07-18T21:01:30.014Z,4.15
2023-07-18T21:04:01.606Z,5.22
2023-07-18T21:06:32.328Z,5.10
2023-07-18T21:09:05.896Z,4.90
2023-07-18T21:11:44.622Z,11.65
2023-07-18T21:14:17.296Z,8.28
2023-07-18T21:16:49.453Z,5.33
2023-07-18T21:19:22.686Z,5.62
2023-07-18T21:21:53.269Z,5.10
2023-07-18T21:24:33.210Z,5.12
2023-07-18T21:27:03.871Z,5.47
2023-07-18T21:29:34.636Z,5.03
2023-07-18T21:32:05.577Z,5.55
2023-07-18T21:34:37.175Z,6.53
2023-07-18T21:37:07.974Z,5.55
2023-07-18T21:39:39.742Z,9.15
2023-07-18T21:42:11.152Z,7.22
2023-07-18T21:44:46.036Z,7.25
2023-07-18T21:47:16.676Z,5.65
2023-07-18T21:49:50.746Z,6.22
2023-07-18T21:52:21.648Z,5.70
2023-07-18T21:54:56.563Z,6.70
2023-07-18T21:57:27.441Z,5.95
2023-07-18T21:59:58.345Z,8.85
2023-07-18T22:02:35.954Z,7.10
2023-07-18T22:05:07.061Z,6.78
2023-07-18T22:07:37.692Z,6.40
2023-07-18T22:10:10.722Z,7.30
2023-07-18T22:12:41.255Z,7.20
2023-07-18T22:15:12.293Z,5.70
2023-07-18T22:17:42.862Z,5.22
2023-07-18T22:20:14.390Z,6.30
2023-07-18T22:22:45.123Z,5.80
2023-07-18T22:25:17.079Z,5.35
2023-07-18T22:27:47.789Z,6.15
2023-07-18T22:30:19.036Z,6.72
2023-07-18T22:32:50.361Z,7.90
2023-07-18T22:35:21.856Z,8.73
2023-07-18T22:37:52.384Z,7.72
2023-07-18T22:40:23.122Z,7.40
2023-07-18T22:42:53.728Z,7.62
2023-07-18T22:45:24.458Z,8.35
2023-07-18T22:47:55.219Z,7.20
2023-07-18T22:50:25.833Z,7.22
2023-07-18T22:52:56.356Z,8.33
2023-07-18T22:55:27.109Z,8.35
2023-07-18T22:57:57.787Z,6.90
2023-07-18T23:00:28.347Z,6.85
2023-07-18T23:02:59.035Z,6.05
2023-07-18T23:05:29.555Z,6.28
2023-07-18T23:08:02.102Z,6.67
2023-07-18T23:10:34.178Z,7.92
2023-07-18T23:13:04.832Z,7.90
2023-07-18T23:15:35.557Z,7.33
2023-07-18T23:18:06.543Z,6.37
2023-07-18T23:20:37.180Z,6.15
2023-07-18T23:23:09.945Z,5.85
2023-07-18T23:25:43.677Z,6.03
2023-07-18T23:28:16.092Z,7.30
2023-07-18T23:30:49.183Z,6.65
2023-07-18T23:33:21.276Z,5.97
2023-07-18T23:35:53.178Z,7.28
2023-07-18T23:38:23.667Z,8.23
2023-07-18T23:40:54.304Z,7.40
2023-07-18T23:43:29.529Z,5.58
2023-07-18T23:46:02.044Z,7.28
2023-07-18T23:48:32.891Z,6.72
2023-07-18T23:51:03.450Z,6.53
2023-07-18T23:53:36.329Z,5.70
2023-07-18T23:56:07.994Z,6.22
2023-07-18T23:58:40.758Z,6.60
